createdAt,value
2019-03-26T00:01:45.436Z,7.44
2019-03-26T00:04:24.059Z,7.41
2019-03-26T00:06:58.921Z,7.38
2019-03-26T00:09:40.216Z,7.37
2019-03-26T00:12:16.936Z,7.34
2019-03-26T00:14:51.981Z,7.32
2019-03-26T00:17:36.176Z,7.30
2019-03-26T00:20:09.508Z,7.27
2019-03-26T00:22:46.075Z,7.26
2019-03-26T00:25:21.144Z,7.25
2019-03-26T00:27:55.904Z,7.22
2019-03-26T00:30:36.320Z,7.22
2019-03-26T00:33:14.341Z,7.21
2019-03-26T00:35:49.830Z,7.21
2019-03-26T00:38:26.266Z,7.20
2019-03-26T00:41:01.263Z,7.20
2019-03-26T00:43:37.049Z,7.20
2019-03-26T00:46:09.257Z,7.20
2019-03-26T00:48:41.264Z,7.19
2019-03-26T00:51:13.244Z,7.16
2019-03-26T00:53:45.290Z,7.15
2019-03-26T00:56:17.279Z,7.16
2019-03-26T00:58:51.332Z,7.15
2019-03-26T01:01:32.212Z,7.16
2019-03-26T01:04:09.292Z,7.16
2019-03-26T01:06:47.548Z,7.17
2019-03-26T01:09:22.018Z,7.15
2019-03-26T01:11:54.288Z,7.17
2019-03-26T01:14:26.358Z,7.16
2019-03-26T01:16:58.319Z,7.18
2019-03-26T01:19:32.398Z,7.17
2019-03-26T01:22:05.194Z,7.17
2019-03-26T01:24:37.741Z,7.17
2019-03-26T01:27:11.276Z,7.21
2019-03-26T01:29:43.747Z,7.20
2019-03-26T01:32:16.017Z,7.20
2019-03-26T01:34:49.416Z,7.21
2019-03-26T01:37:22.205Z,7.22
2019-03-26T01:39:55.427Z,7.25
2019-03-26T01:42:27.662Z,7.26
2019-03-26T01:45:01.446Z,7.26
2019-03-26T01:47:33.419Z,7.27
2019-03-26T01:50:06.987Z,7.30
2019-03-26T01:52:39.046Z,7.31
2019-03-26T01:55:11.309Z,7.31
2019-03-26T01:57:44.464Z,7.31
2019-03-26T02:00:16.749Z,7.26
2019-03-26T02:02:49.835Z,7.26
2019-03-26T02:05:23.723Z,7.23
2019-03-26T02:07:59.709Z,7.22
2019-03-26T02:10:35.302Z,7.21
2019-03-26T02:13:10.827Z,7.18
2019-03-26T02:15:45.737Z,7.19
2019-03-26T02:18:25.255Z,7.18
2019-03-26T02:21:07.456Z,7.19
2019-03-26T02:23:40.661Z,7.19
2019-03-26T02:26:15.648Z,7.22
2019-03-26T02:28:54.330Z,7.23
2019-03-26T02:31:31.175Z,7.24
2019-03-26T02:34:05.876Z,7.22
2019-03-26T02:36:40.939Z,7.22
2019-03-26T02:39:18.042Z,7.24
2019-03-26T02:41:52.034Z,7.25
2019-03-26T02:44:39.151Z,7.27
2019-03-26T02:47:13.095Z,7.27
2019-03-26T02:49:46.916Z,7.27
2019-03-26T02:52:20.655Z,7.30
2019-03-26T02:54:55.096Z,7.34
2019-03-26T02:57:41.482Z,7.37
2019-03-26T03:00:18.775Z,7.37
2019-03-26T03:02:52.113Z,7.37
2019-03-26T03:05:35.530Z,7.37
2019-03-26T03:08:04.793Z,7.37
2019-03-26T03:10:38.960Z,7.33
2019-03-26T03:13:11.349Z,7.32
2019-03-26T03:15:44.064Z,7.32
2019-03-26T03:18:16.227Z,7.30
2019-03-26T03:20:49.240Z,7.31
2019-03-26T03:23:24.869Z,7.30
2019-03-26T03:25:58.729Z,7.30
2019-03-26T03:28:31.802Z,7.29
2019-03-26T03:31:04.392Z,7.30
2019-03-26T03:33:36.804Z,7.29
2019-03-26T03:36:09.881Z,7.32
2019-03-26T03:38:41.968Z,7.33
2019-03-26T03:41:14.213Z,7.33
2019-03-26T03:43:47.272Z,7.34
2019-03-26T03:46:19.714Z,7.35
2019-03-26T03:48:53.160Z,7.35
2019-03-26T03:51:28.441Z,7.34
2019-03-26T03:54:01.099Z,7.33
2019-03-26T03:56:36.264Z,7.34
2019-03-26T03:59:12.325Z,7.36
2019-03-26T04:01:44.596Z,7.39
2019-03-26T04:04:17.026Z,7.38
2019-03-26T04:06:49.495Z,7.36
2019-03-26T04:09:24.002Z,7.36
2019-03-26T04:11:56.080Z,7.37
2019-03-26T04:14:28.349Z,7.37
2019-03-26T04:17:02.574Z,7.39
2019-03-26T04:19:37.948Z,7.38
2019-03-26T04:22:10.601Z,7.39
2019-03-26T04:24:44.718Z,7.42
2019-03-26T04:27:21.160Z,7.43
2019-03-26T04:29:59.181Z,7.43
2019-03-26T04:32:31.331Z,7.45
2019-03-26T04:35:04.226Z,7.45
2019-03-26T04:37:37.190Z,7.43
2019-03-26T04:40:09.311Z,7.46
2019-03-26T04:42:41.325Z,7.44
2019-03-26T04:45:13.547Z,7.44
2019-03-26T04:47:45.525Z,7.46
2019-03-26T04:50:17.523Z,7.43
2019-03-26T04:52:51.891Z,7.43
2019-03-26T04:55:26.132Z,7.43
2019-03-26T04:57:58.132Z,7.42
2019-03-26T05:00:30.132Z,7.41
2019-03-26T05:03:02.096Z,7.42
2019-03-26T05:05:34.132Z,7.41
2019-03-26T05:08:06.127Z,7.42
2019-03-26T05:10:38.204Z,7.43
2019-03-26T05:13:11.295Z,7.41
2019-03-26T05:15:43.664Z,7.40
2019-03-26T05:18:16.452Z,7.39
2019-03-26T05:20:48.478Z,7.37
2019-03-26T05:23:20.578Z,7.35
2019-03-26T05:25:53.024Z,7.35
2019-03-26T05:28:25.097Z,7.35
2019-03-26T05:30:57.186Z,7.36
2019-03-26T05:33:29.532Z,7.36
2019-03-26T05:36:01.833Z,7.39
2019-03-26T05:38:33.913Z,7.41
2019-03-26T05:41:06.271Z,7.44
2019-03-26T05:43:40.273Z,7.48
2019-03-26T05:46:16.181Z,7.52
2019-03-26T05:48:48.499Z,7.54
2019-03-26T05:51:22.959Z,7.55
2019-03-26T05:53:56.137Z,7.60
2019-03-26T05:56:30.633Z,7.61
2019-03-26T05:59:06.114Z,7.61
2019-03-26T06:01:38.894Z,7.65
2019-03-26T06:04:13.872Z,7.65
2019-03-26T06:06:48.068Z,7.66
2019-03-26T06:09:22.494Z,7.65
2019-03-26T06:11:55.315Z,7.67
2019-03-26T06:14:27.421Z,7.68
2019-03-26T06:16:59.372Z,7.69
2019-03-26T06:19:31.391Z,7.69
2019-03-26T06:22:03.396Z,7.71
2019-03-26T06:24:35.391Z,7.72
2019-03-26T06:27:07.370Z,7.72
2019-03-26T06:29:39.723Z,7.72
2019-03-26T06:32:11.752Z,7.71
2019-03-26T06:34:44.345Z,7.70
2019-03-26T06:37:18.046Z,7.72
2019-03-26T06:39:50.671Z,7.77
2019-03-26T06:42:22.889Z,7.86
2019-03-26T06:44:55.855Z,7.91
2019-03-26T06:47:28.768Z,7.94
2019-03-26T06:50:01.777Z,7.97
2019-03-26T06:52:33.758Z,8.00
2019-03-26T06:55:08.507Z,8.05
2019-03-26T06:57:41.947Z,8.07
2019-03-26T07:00:18.044Z,8.10
2019-03-26T07:02:51.814Z,8.13
2019-03-26T07:05:29.159Z,8.18
2019-03-26T07:08:02.760Z,8.21
2019-03-26T07:10:37.832Z,8.24
2019-03-26T07:13:10.061Z,8.25
2019-03-26T07:15:42.021Z,8.25
2019-03-26T07:18:14.068Z,8.26
2019-03-26T07:20:46.235Z,8.26
2019-03-26T07:23:18.684Z,8.29
2019-03-26T07:25:51.144Z,8.38
2019-03-26T07:28:23.461Z,8.42
2019-03-26T07:30:55.491Z,8.48
2019-03-26T07:33:27.438Z,8.54
2019-03-26T07:35:59.772Z,8.61
2019-03-26T07:38:31.853Z,8.70
2019-03-26T07:41:14.927Z,8.74
2019-03-26T07:43:56.180Z,8.80
2019-03-26T07:46:28.710Z,8.90
2019-03-26T07:49:05.498Z,8.96
2019-03-26T07:51:42.651Z,9.01
2019-03-26T07:54:14.727Z,9.07
2019-03-26T07:56:47.070Z,9.15
2019-03-26T07:59:19.563Z,9.15
2019-03-26T08:01:51.597Z,9.06
2019-03-26T08:04:23.792Z,9.03
2019-03-26T08:06:56.487Z,9.04
2019-03-26T08:09:31.578Z,9.03
2019-03-26T08:12:02.941Z,9.00
2019-03-26T08:14:34.955Z,8.98
2019-03-26T08:17:06.903Z,9.01
2019-03-26T08:19:39.171Z,9.06
2019-03-26T08:22:11.222Z,9.06
2019-03-26T08:24:43.327Z,9.05
2019-03-26T08:27:15.461Z,8.99
2019-03-26T08:29:47.491Z,8.93
2019-03-26T08:32:19.481Z,8.92
2019-03-26T08:34:51.838Z,8.87
2019-03-26T08:37:23.820Z,8.83
2019-03-26T08:39:55.809Z,8.78
2019-03-26T08:42:30.974Z,8.77
2019-03-26T08:45:02.954Z,8.80
2019-03-26T08:47:36.605Z,8.74
2019-03-26T08:50:10.295Z,8.68
2019-03-26T08:52:42.896Z,8.68
2019-03-26T08:55:27.903Z,8.64
2019-03-26T08:57:58.278Z,8.64
2019-03-26T09:00:32.585Z,8.69
2019-03-26T09:03:05.143Z,8.70
2019-03-26T09:05:40.533Z,8.73
2019-03-26T09:08:25.207Z,8.72
2019-03-26T09:10:54.030Z,8.71
2019-03-26T09:13:31.931Z,8.71
2019-03-26T09:16:08.366Z,8.67
2019-03-26T09:37:50.466Z,8.53
2019-03-26T09:40:23.308Z,8.52
2019-03-26T09:42:56.412Z,8.54
2019-03-26T09:45:29.269Z,8.57
2019-03-26T09:48:01.752Z,8.58
2019-03-26T09:50:37.950Z,8.53
2019-03-26T09:53:10.148Z,8.45
2019-03-26T09:55:42.203Z,8.37
2019-03-26T09:58:14.592Z,8.34
2019-03-26T10:00:48.282Z,8.36
2019-03-26T10:03:22.541Z,8.39
2019-03-26T10:05:54.930Z,8.44
2019-03-26T10:08:27.296Z,8.45
2019-03-26T10:11:04.007Z,8.43
2019-03-26T10:13:36.434Z,8.46
2019-03-26T10:16:09.444Z,8.46
2019-03-26T10:18:42.227Z,8.40
2019-03-26T10:21:14.223Z,8.41
2019-03-26T10:23:46.231Z,8.38
2019-03-26T10:26:18.815Z,8.43
2019-03-26T10:28:51.556Z,8.55
2019-03-26T10:31:23.708Z,8.67
2019-03-26T10:33:55.903Z,8.80
2019-03-26T10:36:28.088Z,8.96
2019-03-26T10:39:05.256Z,9.08
2019-03-26T10:41:34.192Z,9.15
2019-03-26T10:44:06.339Z,9.30
2019-03-26T10:46:44.634Z,9.39
2019-03-26T10:49:16.770Z,9.47
2019-03-26T10:51:49.305Z,9.54
2019-03-26T10:54:21.422Z,9.64
2019-03-26T10:56:53.680Z,9.71
2019-03-26T10:59:26.477Z,9.76
2019-03-26T11:02:00.016Z,9.77
2019-03-26T11:04:32.626Z,9.77
2019-03-26T11:07:07.220Z,9.80
2019-03-26T11:09:39.310Z,9.86
2019-03-26T11:12:11.417Z,9.93
2019-03-26T11:14:43.777Z,9.97
2019-03-26T11:17:23.027Z,9.98
2019-03-26T11:19:55.584Z,9.96
2019-03-26T11:22:29.414Z,9.93
2019-03-26T11:25:02.335Z,9.95
2019-03-26T11:27:35.561Z,9.99
2019-03-26T11:30:09.795Z,10.03
2019-03-26T11:32:44.278Z,9.93
2019-03-26T11:35:16.467Z,9.81
2019-03-26T11:37:49.188Z,9.71
2019-03-26T11:40:23.952Z,9.70
2019-03-26T11:42:56.076Z,9.75
2019-03-26T11:45:28.133Z,9.82
2019-03-26T11:48:00.796Z,9.88
2019-03-26T11:50:36.989Z,9.89
2019-03-26T11:53:11.791Z,9.89
2019-03-26T11:55:44.032Z,9.85
2019-03-26T11:58:29.522Z,9.74
2019-03-26T12:00:51.097Z,9.71
2019-03-26T12:03:23.324Z,9.80
2019-03-26T12:05:55.429Z,9.90
2019-03-26T12:08:28.034Z,9.99
2019-03-26T12:11:00.189Z,10.03
2019-03-26T12:13:32.975Z,10.05
2019-03-26T12:16:08.109Z,10.08
2019-03-26T12:18:40.527Z,10.13
2019-03-26T12:21:13.747Z,10.17
2019-03-26T12:23:46.090Z,10.24
2019-03-26T12:26:18.149Z,10.33
2019-03-26T12:28:54.347Z,10.43
2019-03-26T12:31:26.793Z,10.44
2019-03-26T12:33:58.954Z,10.39
2019-03-26T12:39:27.892Z,10.28
2019-03-26T12:42:05.311Z,10.24
2019-03-26T12:44:38.485Z,10.21
2019-03-26T12:47:10.573Z,10.17
2019-03-26T12:49:43.069Z,10.08
2019-03-26T12:52:15.518Z,10.05
2019-03-26T12:54:48.422Z,10.07
2019-03-26T12:57:21.003Z,10.08
2019-03-26T13:00:01.257Z,10.14
2019-03-26T13:02:35.917Z,10.24
2019-03-26T13:05:09.773Z,10.30
2019-03-26T13:07:41.858Z,10.34
2019-03-26T13:10:28.191Z,10.31
2019-03-26T13:13:00.442Z,10.32
2019-03-26T13:15:32.566Z,10.30
2019-03-26T13:18:06.955Z,10.27
2019-03-26T13:20:39.837Z,10.27
2019-03-26T13:23:11.995Z,10.22
2019-03-26T13:25:44.747Z,10.23
2019-03-26T13:28:18.910Z,10.24
2019-03-26T13:30:53.016Z,10.19
2019-03-26T13:33:26.813Z,10.23
2019-03-26T13:35:59.598Z,10.25
2019-03-26T13:38:33.269Z,10.29
2019-03-26T13:43:58.616Z,10.32
2019-03-26T13:46:32.086Z,10.34
2019-03-26T13:49:07.573Z,10.39
2019-03-26T13:51:43.480Z,10.35
2019-03-26T13:54:15.740Z,10.41
2019-03-26T13:56:48.041Z,10.41
2019-03-26T13:59:20.257Z,10.42
2019-03-26T14:01:52.692Z,10.47
2019-03-26T14:04:24.725Z,10.47
2019-03-26T14:06:56.849Z,10.47
2019-03-26T14:09:28.906Z,10.47
2019-03-26T14:12:01.386Z,10.43
2019-03-26T14:14:36.358Z,10.41
2019-03-26T14:17:12.124Z,10.40
2019-03-26T14:19:44.263Z,10.36
2019-03-26T14:22:23.797Z,10.39
2019-03-26T14:25:06.474Z,10.36
2019-03-26T14:27:41.654Z,10.39
2019-03-26T14:30:18.452Z,10.38
2019-03-26T14:32:56.306Z,10.35
2019-03-26T14:35:33.815Z,10.27
2019-03-26T14:38:18.299Z,10.25
2019-03-26T14:40:55.603Z,10.26
2019-03-26T14:43:31.801Z,10.26
2019-03-26T14:46:13.609Z,10.27
2019-03-26T14:48:46.840Z,10.30
2019-03-26T14:51:23.014Z,10.30
2019-03-26T14:53:55.614Z,10.31
2019-03-26T14:56:29.300Z,10.28
2019-03-26T14:59:05.411Z,10.24
2019-03-26T15:01:39.458Z,10.25
2019-03-26T15:04:12.259Z,10.26
2019-03-26T15:06:48.114Z,10.29
2019-03-26T15:09:23.911Z,10.31
2019-03-26T15:11:56.354Z,10.31
2019-03-26T15:14:28.948Z,10.34
2019-03-26T15:17:04.452Z,10.41
2019-03-26T15:19:44.141Z,10.46
2019-03-26T15:22:25.460Z,10.46
2019-03-26T15:25:27.878Z,10.42
2019-03-26T15:28:22.857Z,10.37
2019-03-26T15:37:37.226Z,10.24
2019-03-26T15:40:15.721Z,10.21
2019-03-26T15:42:51.343Z,10.21
2019-03-26T15:45:25.871Z,10.21
2019-03-26T15:48:01.758Z,10.22
2019-03-26T15:50:46.347Z,10.22
2019-03-26T15:53:18.559Z,10.23
2019-03-26T15:55:50.712Z,10.19
2019-03-26T15:58:23.125Z,10.17
2019-03-26T16:00:55.261Z,10.15
2019-03-26T16:03:32.977Z,10.13
2019-03-26T16:06:05.273Z,10.08
2019-03-26T16:08:37.300Z,10.07
2019-03-26T16:11:10.432Z,10.07
2019-03-26T16:14:00.270Z,10.02
2019-03-26T16:16:25.287Z,10.01
2019-03-26T16:18:57.665Z,9.98
2019-03-26T16:21:29.818Z,9.93
2019-03-26T16:24:01.989Z,9.93
2019-03-26T16:26:34.162Z,9.92
2019-03-26T16:29:06.189Z,9.96
2019-03-26T16:31:39.103Z,9.94
2019-03-26T16:34:11.472Z,9.95
2019-03-26T16:36:43.675Z,9.96
2019-03-26T16:39:16.829Z,9.97
2019-03-26T16:41:51.828Z,9.95
2019-03-26T16:44:23.877Z,9.95
2019-03-26T16:46:56.130Z,9.94
2019-03-26T16:49:29.812Z,9.93
2019-03-26T16:52:02.022Z,9.92
2019-03-26T16:54:34.147Z,9.92
2019-03-26T16:57:10.193Z,9.93
2019-03-26T16:59:48.527Z,9.89
2019-03-26T17:02:41.105Z,9.88
2019-03-26T17:05:20.633Z,9.84
2019-03-26T17:07:53.279Z,9.79
2019-03-26T17:22:46.434Z,9.63
2019-03-26T17:25:39.717Z,9.62
2019-03-26T17:28:11.918Z,9.63
2019-03-26T17:30:50.843Z,9.62
2019-03-26T17:33:23.610Z,9.62
2019-03-26T17:38:53.039Z,9.63
2019-03-26T17:41:31.018Z,9.62
2019-03-26T17:44:12.400Z,9.64
2019-03-26T17:46:46.075Z,9.62
2019-03-26T17:49:21.240Z,9.59
2019-03-26T17:51:56.821Z,9.57
2019-03-26T17:54:31.060Z,9.56
2019-03-26T17:57:09.458Z,9.55
2019-03-26T17:59:42.152Z,9.54
2019-03-26T18:02:14.628Z,9.50
2019-03-26T18:04:47.010Z,9.50
2019-03-26T18:07:19.184Z,9.49
2019-03-26T18:10:10.107Z,9.47
2019-03-26T18:15:45.257Z,9.35
2019-03-26T18:18:18.089Z,9.30
2019-03-26T18:20:56.242Z,9.26
2019-03-26T18:26:42.896Z,9.17
2019-03-26T18:29:33.661Z,9.15
2019-03-26T18:32:06.354Z,9.13
2019-03-26T18:34:42.524Z,9.11
2019-03-26T18:37:14.817Z,9.08
2019-03-26T18:39:47.769Z,9.06
2019-03-26T18:42:23.758Z,9.03
2019-03-26T18:45:03.991Z,9.02
2019-03-26T18:47:36.359Z,8.99
2019-03-26T18:50:11.213Z,8.93
2019-03-26T18:52:46.017Z,8.97
2019-03-26T18:55:18.729Z,8.96
2019-03-26T18:57:52.419Z,8.93
2019-03-26T19:03:33.693Z,8.90
2019-03-26T19:06:06.431Z,8.89
2019-03-26T19:08:40.010Z,8.86
2019-03-26T19:11:12.984Z,8.85
2019-03-26T19:13:47.219Z,8.83
2019-03-26T19:16:20.378Z,8.81
2019-03-26T19:18:53.379Z,8.77
2019-03-26T19:21:25.389Z,8.75
2019-03-26T19:24:03.963Z,8.73
2019-03-26T19:26:32.092Z,8.71
2019-03-26T19:29:04.367Z,8.69
2019-03-26T19:34:37.207Z,8.63
2019-03-26T19:37:16.313Z,8.61
2019-03-26T19:39:51.023Z,8.60
2019-03-26T19:42:25.322Z,8.58
2019-03-26T19:45:15.867Z,8.56
2019-03-26T20:11:20.761Z,8.38
2019-03-26T20:13:55.121Z,8.38
2019-03-26T20:16:27.531Z,8.38
2019-03-26T20:25:32.439Z,8.37
2019-03-26T20:28:04.859Z,8.35
2019-03-26T20:30:46.927Z,8.35
2019-03-26T20:33:23.052Z,8.35
2019-03-26T20:35:55.200Z,8.35
2019-03-26T20:38:27.259Z,8.35
2019-03-26T20:40:59.400Z,8.34
2019-03-26T20:43:42.656Z,8.34
2019-03-26T20:46:17.613Z,8.34
2019-03-26T20:48:49.618Z,8.33
2019-03-26T20:51:21.644Z,8.32
2019-03-26T20:53:53.636Z,8.33
2019-03-26T20:56:26.828Z,8.32
2019-03-26T20:58:59.737Z,8.32
2019-03-26T21:01:31.751Z,8.31
2019-03-26T21:04:03.807Z,8.29
2019-03-26T21:06:35.780Z,8.29
2019-03-26T21:09:08.147Z,8.29
2019-03-26T21:14:44.069Z,8.29
2019-03-26T21:17:24.990Z,8.29
2019-03-26T21:20:21.483Z,8.29
2019-03-26T21:23:03.419Z,8.26
2019-03-26T21:25:35.983Z,8.26
2019-03-26T21:28:08.112Z,8.24
2019-03-26T21:30:40.075Z,8.24
2019-03-26T21:33:12.039Z,8.24
2019-03-26T21:35:44.096Z,8.24
2019-03-26T21:38:16.142Z,8.24
2019-03-26T21:40:48.208Z,8.25
2019-03-26T21:43:20.581Z,8.26
2019-03-26T21:45:52.702Z,8.27
2019-03-26T21:48:26.891Z,8.29
2019-03-26T21:50:59.794Z,8.30
2019-03-26T21:53:31.988Z,8.30
2019-03-26T21:56:06.663Z,8.30
2019-03-26T21:58:37.724Z,8.31
2019-03-26T22:01:09.755Z,8.32
2019-03-26T22:03:41.747Z,8.32
2019-03-26T22:06:15.020Z,8.32
2019-03-26T22:08:47.605Z,8.31
2019-03-26T22:11:19.998Z,8.31
2019-03-26T22:14:00.476Z,8.30
2019-03-26T22:16:33.152Z,8.30
2019-03-26T22:19:05.148Z,8.29
2019-03-26T22:21:37.523Z,8.29
2019-03-26T22:24:09.483Z,8.27
2019-03-26T22:26:41.513Z,8.27
2019-03-26T22:29:13.485Z,8.26
2019-03-26T22:31:45.458Z,8.25
2019-03-26T22:34:17.797Z,8.25
2019-03-26T22:36:51.443Z,8.25
2019-03-26T22:39:23.867Z,8.26
2019-03-26T22:41:55.882Z,8.25
2019-03-26T22:44:31.569Z,8.26
2019-03-26T22:47:01.548Z,8.27
2019-03-26T22:49:33.776Z,8.26
2019-03-26T22:52:07.021Z,8.26
2019-03-26T22:54:39.346Z,8.26
2019-03-26T22:57:11.358Z,8.27
2019-03-26T22:59:43.317Z,8.27
2019-03-26T23:02:15.584Z,8.27
2019-03-26T23:04:47.568Z,8.28
2019-03-26T23:07:19.500Z,8.30
2019-03-26T23:09:51.478Z,8.31
2019-03-26T23:12:23.481Z,8.33
2019-03-26T23:14:56.738Z,8.35
2019-03-26T23:17:28.838Z,8.36
2019-03-26T23:20:00.839Z,8.38
2019-03-26T23:22:32.841Z,8.39
2019-03-26T23:25:07.070Z,8.39
2019-03-26T23:27:39.739Z,8.40
2019-03-26T23:30:13.507Z,8.43
2019-03-26T23:32:45.644Z,8.45
2019-03-26T23:35:17.703Z,8.48
2019-03-26T23:37:49.985Z,8.51
2019-03-26T23:40:21.953Z,8.53
2019-03-26T23:42:53.934Z,8.57
2019-03-26T23:45:25.947Z,8.58
2019-03-26T23:47:57.945Z,8.62
2019-03-26T23:50:29.882Z,8.64
2019-03-26T23:53:01.882Z,8.67
2019-03-26T23:55:33.838Z,8.68
2019-03-26T23:58:05.929Z,8.70
